sensor_id;sensor_type;location;lat;lon;timestamp;pressure;altitude;pressure_sealevel;temperature;humidity
80333;BME280;69652;51.864;-2.246;2023-06-01T00:01:49;102630.00;;;12.54;69.89
80333;BME280;69652;51.864;-2.246;2023-06-01T00:04:15;102633.25;;;12.51;69.65
80333;BME280;69652;51.864;-2.246;2023-06-01T00:06:42;102633.25;;;12.46;69.16
80333;BME280;69652;51.864;-2.246;2023-06-01T00:09:08;102626.97;;;12.40;69.50
80333;BME280;69652;51.864;-2.246;2023-06-01T00:11:33;102632.44;;;12.45;68.43
80333;BME280;69652;51.864;-2.246;2023-06-01T00:13:59;102631.06;;;12.43;68.80
80333;BME280;69652;51.864;-2.246;2023-06-01T00:16:24;102638.72;;;12.46;68.78
80333;BME280;69652;51.864;-2.246;2023-06-01T00:18:51;102633.25;;;12.51;68.38
80333;BME280;69652;51.864;-2.246;2023-06-01T00:21:22;102640.31;;;12.42;69.22
80333;BME280;69652;51.864;-2.246;2023-06-01T00:23:48;102633.78;;;12.33;68.93
80333;BME280;69652;51.864;-2.246;2023-06-01T00:26:14;102639.47;;;12.31;69.14
80333;BME280;69652;51.864;-2.246;2023-06-01T00:28:40;102642.75;;;12.33;68.58
80333;BME280;69652;51.864;-2.246;2023-06-01T00:31:06;102641.97;;;12.38;68.90
80333;BME280;69652;51.864;-2.246;2023-06-01T00:33:31;102643.88;;;12.37;68.78
80333;BME280;69652;51.864;-2.246;2023-06-01T00:35:57;102633.78;;;12.38;68.59
80333;BME280;69652;51.864;-2.246;2023-06-01T00:38:22;102635.13;;;12.30;69.27
80333;BME280;69652;51.864;-2.246;2023-06-01T00:40:48;102637.28;;;12.28;69.12
80333;BME280;69652;51.864;-2.246;2023-06-01T00:43:17;102639.47;;;12.31;69.18
80333;BME280;69652;51.864;-2.246;2023-06-01T00:45:43;102635.41;;;12.34;68.93
80333;BME280;69652;51.864;-2.246;2023-06-01T00:48:10;102637.84;;;12.30;69.39
80333;BME280;69652;51.864;-2.246;2023-06-01T00:50:36;102640.81;;;12.28;69.11
80333;BME280;69652;51.864;-2.246;2023-06-01T00:53:03;102634.84;;;12.32;69.62
80333;BME280;69652;51.864;-2.246;2023-06-01T00:55:30;102632.41;;;12.35;69.34
80333;BME280;69652;51.864;-2.246;2023-06-01T00:57:57;102632.97;;;12.37;69.00
80333;BME280;69652;51.864;-2.246;2023-06-01T01:00:24;102632.97;;;12.37;69.38
80333;BME280;69652;51.864;-2.246;2023-06-01T01:02:51;102634.84;;;12.32;69.11
80333;BME280;69652;51.864;-2.246;2023-06-01T01:05:17;102629.13;;;12.28;70.64
80333;BME280;69652;51.864;-2.246;2023-06-01T01:10:38;102628.28;;;12.17;70.47
80333;BME280;69652;51.864;-2.246;2023-06-01T01:13:16;102629.88;;;12.08;70.61
80333;BME280;69652;51.864;-2.246;2023-06-01T01:16:01;102629.88;;;12.03;70.96
80333;BME280;69652;51.864;-2.246;2023-06-01T01:18:34;102627.13;;;11.98;70.90
80333;BME280;69652;51.864;-2.246;2023-06-01T01:21:02;102634.72;;;11.91;71.15
80333;BME280;69652;51.864;-2.246;2023-06-01T01:29:24;102635.53;;;11.91;71.55
80333;BME280;69652;51.864;-2.246;2023-06-01T01:31:52;102640.97;;;11.91;71.77
80333;BME280;69652;51.864;-2.246;2023-06-01T01:34:19;102634.69;;;11.86;72.14
80333;BME280;69652;51.864;-2.246;2023-06-01T01:36:46;102627.09;;;11.93;70.50
80333;BME280;69652;51.864;-2.246;2023-06-01T01:39:11;102637.94;;;11.83;71.78
80333;BME280;69652;51.864;-2.246;2023-06-01T01:41:37;102630.59;;;11.83;72.04
80333;BME280;69652;51.864;-2.246;2023-06-01T01:44:03;102630.88;;;11.87;71.93
80333;BME280;69652;51.864;-2.246;2023-06-01T01:46:32;102632.50;;;11.83;71.96
80333;BME280;69652;51.864;-2.246;2023-06-01T01:49:17;102630.84;;;11.82;72.00
80333;BME280;69652;51.864;-2.246;2023-06-01T01:51:50;102632.75;;;11.81;72.23
80333;BME280;69652;51.864;-2.246;2023-06-01T01:54:18;102635.78;;;11.85;71.76
80333;BME280;69652;51.864;-2.246;2023-06-01T01:56:44;102624.31;;;11.78;71.82
80333;BME280;69652;51.864;-2.246;2023-06-01T01:59:11;102620.78;;;11.82;71.98
80333;BME280;69652;51.864;-2.246;2023-06-01T02:01:37;102619.16;;;11.81;71.59
80333;BME280;69652;51.864;-2.246;2023-06-01T02:04:07;102624.88;;;11.85;71.50
80333;BME280;69652;51.864;-2.246;2023-06-01T02:06:33;102621.91;;;11.86;71.58
80333;BME280;69652;51.864;-2.246;2023-06-01T02:08:59;102612.88;;;11.81;71.92
80333;BME280;69652;51.864;-2.246;2023-06-01T02:11:24;102616.47;;;11.86;71.57
80333;BME280;69652;51.864;-2.246;2023-06-01T02:13:50;102620.53;;;11.84;71.48
80333;BME280;69652;51.864;-2.246;2023-06-01T02:16:16;102613.44;;;11.78;71.38
80333;BME280;69652;51.864;-2.246;2023-06-01T02:18:43;102618.63;;;11.79;71.21
80333;BME280;69652;51.864;-2.246;2023-06-01T02:21:13;102616.41;;;11.76;71.39
80333;BME280;69652;51.864;-2.246;2023-06-01T02:23:39;102616.16;;;11.78;71.32
80333;BME280;69652;51.864;-2.246;2023-06-01T02:26:07;102625.84;;;11.69;71.46
80333;BME280;69652;51.864;-2.246;2023-06-01T02:28:33;102615.53;;;11.71;70.65
80333;BME280;69652;51.864;-2.246;2023-06-01T02:30:58;102616.59;;;11.70;71.46
80333;BME280;69652;51.864;-2.246;2023-06-01T02:33:24;102618.81;;;11.73;71.00
80333;BME280;69652;51.864;-2.246;2023-06-01T02:35:50;102617.44;;;11.70;70.82
80333;BME280;69652;51.864;-2.246;2023-06-01T02:38:16;102614.44;;;11.67;71.30
80333;BME280;69652;51.864;-2.246;2023-06-01T02:40:42;102611.97;;;11.65;70.99
80333;BME280;69652;51.864;-2.246;2023-06-01T02:43:07;102612.25;;;11.64;71.45
80333;BME280;69652;51.864;-2.246;2023-06-01T02:45:33;102606.81;;;11.64;71.57
80333;BME280;69652;51.864;-2.246;2023-06-01T02:47:58;102611.16;;;11.65;71.40
80333;BME280;69652;51.864;-2.246;2023-06-01T02:50:24;102600.28;;;11.70;71.88
80333;BME280;69652;51.864;-2.246;2023-06-01T02:52:51;102607.38;;;11.71;71.43
80333;BME280;69652;51.864;-2.246;2023-06-01T02:55:17;102600.84;;;11.67;70.96
80333;BME280;69652;51.864;-2.246;2023-06-01T02:57:43;102613.56;;;11.61;71.50
80333;BME280;69652;51.864;-2.246;2023-06-01T03:00:09;102608.66;;;11.58;71.42
80333;BME280;69652;51.864;-2.246;2023-06-01T03:02:44;102598.34;;;11.55;71.40
80333;BME280;69652;51.864;-2.246;2023-06-01T03:05:11;102599.97;;;11.56;71.09
80333;BME280;69652;51.864;-2.246;2023-06-01T03:07:45;102600.75;;;11.51;71.70
80333;BME280;69652;51.864;-2.246;2023-06-01T03:10:11;102599.09;;;11.50;71.51
80333;BME280;69652;51.864;-2.246;2023-06-01T03:12:37;102601.53;;;11.47;71.71
80333;BME280;69652;51.864;-2.246;2023-06-01T03:15:03;102596.94;;;11.52;71.19
80333;BME280;69652;51.864;-2.246;2023-06-01T03:17:30;102590.44;;;11.53;70.93
80333;BME280;69652;51.864;-2.246;2023-06-01T03:19:57;102596.63;;;11.44;71.10
80333;BME280;69652;51.864;-2.246;2023-06-01T03:22:22;102585.19;;;11.42;71.02
80333;BME280;69652;51.864;-2.246;2023-06-01T03:24:48;102599.00;;;11.30;71.89
80333;BME280;69652;51.864;-2.246;2023-06-01T03:27:18;102581.63;;;11.36;71.41
80333;BME280;69652;51.864;-2.246;2023-06-01T03:29:45;102591.47;;;11.42;71.19
80333;BME280;69652;51.864;-2.246;2023-06-01T03:32:11;102593.63;;;11.45;70.88
80333;BME280;69652;51.864;-2.246;2023-06-01T03:34:37;102585.78;;;11.49;70.96
80333;BME280;69652;51.864;-2.246;2023-06-01T03:37:04;102595.28;;;11.46;70.52
80333;BME280;69652;51.864;-2.246;2023-06-01T03:39:30;102592.50;;;11.36;71.49
80333;BME280;69652;51.864;-2.246;2023-06-01T03:41:59;102593.31;;;11.37;71.72
80333;BME280;69652;51.864;-2.246;2023-06-01T03:44:25;102589.22;;;11.34;71.35
80333;BME280;69652;51.864;-2.246;2023-06-01T03:46:50;102593.00;;;11.33;71.29
80333;BME280;69652;51.864;-2.246;2023-06-01T03:49:16;102590.03;;;11.35;71.11
80333;BME280;69652;51.864;-2.246;2023-06-01T03:51:41;102591.91;;;11.29;71.85
80333;BME280;69652;51.864;-2.246;2023-06-01T03:54:07;102589.75;;;11.31;71.35
80333;BME280;69652;51.864;-2.246;2023-06-01T03:56:32;102579.41;;;11.33;71.83
80333;BME280;69652;51.864;-2.246;2023-06-01T03:58:58;102580.53;;;11.32;71.32
80333;BME280;69652;51.864;-2.246;2023-06-01T04:01:23;102579.72;;;11.37;70.72
80333;BME280;69652;51.864;-2.246;2023-06-01T04:03:48;102576.19;;;11.36;71.44
80333;BME280;69652;51.864;-2.246;2023-06-01T04:06:14;102573.72;;;11.35;71.72
80333;BME280;69652;51.864;-2.246;2023-06-01T04:08:46;102572.06;;;11.29;72.24
80333;BME280;69652;51.864;-2.246;2023-06-01T04:11:16;102582.34;;;11.21;72.87
80333;BME280;69652;51.864;-2.246;2023-06-01T04:13:42;102580.44;;;11.17;72.61
80333;BME280;69652;51.864;-2.246;2023-06-01T04:16:11;102576.94;;;11.27;72.00
80333;BME280;69652;51.864;-2.246;2023-06-01T04:18:37;102570.13;;;11.24;72.42
80333;BME280;69652;51.864;-2.246;2023-06-01T04:21:03;102572.28;;;11.22;71.46
80333;BME280;69652;51.864;-2.246;2023-06-01T04:23:28;102569.03;;;11.20;71.76
80333;BME280;69652;51.864;-2.246;2023-06-01T04:25:54;102570.88;;;11.14;72.53
80333;BME280;69652;51.864;-2.246;2023-06-01T04:28:26;102571.44;;;11.16;72.35
80333;BME280;69652;51.864;-2.246;2023-06-01T04:30:52;102575.00;;;11.22;71.97
80333;BME280;69652;51.864;-2.246;2023-06-01T04:33:18;102573.97;;;11.28;71.28
80333;BME280;69652;51.864;-2.246;2023-06-01T04:35:43;102575.63;;;11.29;71.11
80333;BME280;69652;51.864;-2.246;2023-06-01T04:38:09;102577.22;;;11.25;70.95
80333;BME280;69652;51.864;-2.246;2023-06-01T04:40:34;102581.00;;;11.24;70.46
80333;BME280;69652;51.864;-2.246;2023-06-01T04:43:00;102572.78;;;11.14;71.18
80333;BME280;69652;51.864;-2.246;2023-06-01T04:45:27;102573.59;;;11.14;71.38
80333;BME280;69652;51.864;-2.246;2023-06-01T04:47:56;102573.88;;;11.13;71.53
80333;BME280;69652;51.864;-2.246;2023-06-01T04:50:23;102581.00;;;11.19;71.48
80333;BME280;69652;51.864;-2.246;2023-06-01T04:52:48;102578.78;;;11.16;71.42
80333;BME280;69652;51.864;-2.246;2023-06-01T04:55:15;102576.09;;;11.21;70.95
80333;BME280;69652;51.864;-2.246;2023-06-01T04:57:42;102575.88;;;11.28;71.08
80333;BME280;69652;51.864;-2.246;2023-06-01T05:00:12;102567.19;;;11.31;70.72
80333;BME280;69652;51.864;-2.246;2023-06-01T05:02:39;102565.00;;;11.28;71.03
80333;BME280;69652;51.864;-2.246;2023-06-01T05:05:06;102570.72;;;11.31;70.54
80333;BME280;69652;51.864;-2.246;2023-06-01T05:07:32;102570.50;;;11.38;70.08
80333;BME280;69652;51.864;-2.246;2023-06-01T05:09:58;102581.66;;;11.41;70.25
80333;BME280;69652;51.864;-2.246;2023-06-01T05:12:29;102583.25;;;11.32;69.97
80333;BME280;69652;51.864;-2.246;2023-06-01T05:14:54;102578.31;;;11.29;70.57
80333;BME280;69652;51.864;-2.246;2023-06-01T05:17:20;102579.94;;;11.25;70.48
80333;BME280;69652;51.864;-2.246;2023-06-01T05:19:45;102577.00;;;11.32;70.07
80333;BME280;69652;51.864;-2.246;2023-06-01T05:22:11;102585.09;;;11.27;70.64
80333;BME280;69652;51.864;-2.246;2023-06-01T05:24:37;102590.91;;;11.40;70.02
80333;BME280;69652;51.864;-2.246;2023-06-01T05:27:03;102590.91;;;11.45;69.67
80333;BME280;69652;51.864;-2.246;2023-06-01T05:29:28;102581.16;;;11.44;69.45
80333;BME280;69652;51.864;-2.246;2023-06-01T05:31:54;102582.75;;;11.40;69.89
80333;BME280;69652;51.864;-2.246;2023-06-01T05:34:20;102582.22;;;11.43;70.20
80333;BME280;69652;51.864;-2.246;2023-06-01T05:36:46;102586.28;;;11.41;69.07
80333;BME280;69652;51.864;-2.246;2023-06-01T05:39:11;102586.03;;;11.42;69.50
80333;BME280;69652;51.864;-2.246;2023-06-01T05:41:37;102589.25;;;11.39;69.52
80333;BME280;69652;51.864;-2.246;2023-06-01T05:44:03;102584.97;;;11.48;69.09
80333;BME280;69652;51.864;-2.246;2023-06-01T05:46:28;102585.81;;;11.54;69.18
80333;BME280;69652;51.864;-2.246;2023-06-01T05:48:54;102582.22;;;11.48;69.17
80333;BME280;69652;51.864;-2.246;2023-06-01T05:51:20;102585.50;;;11.50;68.79
80333;BME280;69652;51.864;-2.246;2023-06-01T05:53:46;102586.84;;;11.48;68.80
80333;BME280;69652;51.864;-2.246;2023-06-01T05:56:12;102587.66;;;11.48;69.16
80333;BME280;69652;51.864;-2.246;2023-06-01T05:58:37;102582.28;;;11.53;69.37
80333;BME280;69652;51.864;-2.246;2023-06-01T06:01:03;102576.31;;;11.62;68.74
80333;BME280;69652;51.864;-2.246;2023-06-01T06:03:28;102578.00;;;11.68;68.20
80333;BME280;69652;51.864;-2.246;2023-06-01T06:05:54;102580.13;;;11.61;68.91
80333;BME280;69652;51.864;-2.246;2023-06-01T06:08:20;102581.25;;;11.65;68.50
80333;BME280;69652;51.864;-2.246;2023-06-01T06:10:45;102581.75;;;11.62;68.99
80333;BME280;69652;51.864;-2.246;2023-06-01T06:13:11;102574.47;;;11.72;68.40
80333;BME280;69652;51.864;-2.246;2023-06-01T06:15:37;102582.38;;;11.74;68.57
80333;BME280;69652;51.864;-2.246;2023-06-01T06:18:02;102590.84;;;11.77;68.62
80333;BME280;69652;51.864;-2.246;2023-06-01T06:20:28;102584.63;;;11.92;68.15
80333;BME280;69652;51.864;-2.246;2023-06-01T06:22:53;102578.66;;;11.95;68.15
80333;BME280;69652;51.864;-2.246;2023-06-01T06:25:19;102571.59;;;11.94;67.92
80333;BME280;69652;51.864;-2.246;2023-06-01T06:27:46;102579.47;;;11.90;67.67
80333;BME280;69652;51.864;-2.246;2023-06-01T06:30:12;102584.66;;;11.97;67.31
80333;BME280;69652;51.864;-2.246;2023-06-01T06:32:37;102590.13;;;12.02;67.02
80333;BME280;69652;51.864;-2.246;2023-06-01T06:35:03;102574.06;;;12.06;66.96
80333;BME280;69652;51.864;-2.246;2023-06-01T06:37:29;102582.50;;;11.99;67.06
80333;BME280;69652;51.864;-2.246;2023-06-01T06:39:55;102581.97;;;12.02;67.37
80333;BME280;69652;51.864;-2.246;2023-06-01T06:42:21;102577.06;;;12.04;66.93
80333;BME280;69652;51.864;-2.246;2023-06-01T06:44:47;102573.28;;;12.10;66.62
80333;BME280;69652;51.864;-2.246;2023-06-01T06:47:12;102576.03;;;12.15;66.86
80333;BME280;69652;51.864;-2.246;2023-06-01T06:49:40;102580.13;;;12.33;66.34
80333;BME280;69652;51.864;-2.246;2023-06-01T06:52:08;102576.03;;;12.41;66.21
80333;BME280;69652;51.864;-2.246;2023-06-01T06:54:35;102572.81;;;12.39;66.03
80333;BME280;69652;51.864;-2.246;2023-06-01T06:57:00;102573.34;;;12.36;66.01
80333;BME280;69652;51.864;-2.246;2023-06-01T06:59:26;102573.84;;;12.27;66.50
80333;BME280;69652;51.864;-2.246;2023-06-01T07:01:51;102574.41;;;12.29;65.75
80333;BME280;69652;51.864;-2.246;2023-06-01T07:04:17;102571.94;;;12.28;66.03
80333;BME280;69652;51.864;-2.246;2023-06-01T07:06:42;102572.50;;;12.35;66.24
80333;BME280;69652;51.864;-2.246;2023-06-01T07:09:08;102573.06;;;12.37;66.04
80333;BME280;69652;51.864;-2.246;2023-06-01T07:11:34;102570.34;;;12.37;65.68
80333;BME280;69652;51.864;-2.246;2023-06-01T07:14:00;102571.16;;;12.48;65.66
80333;BME280;69652;51.864;-2.246;2023-06-01T07:16:25;102573.34;;;12.46;65.87
80333;BME280;69652;51.864;-2.246;2023-06-01T07:18:51;102577.97;;;12.55;65.42
80333;BME280;69652;51.864;-2.246;2023-06-01T07:21:17;102584.53;;;12.59;65.36
80333;BME280;69652;51.864;-2.246;2023-06-01T07:23:44;102580.16;;;12.48;65.75
80333;BME280;69652;51.864;-2.246;2023-06-01T07:26:10;102586.97;;;12.56;65.23
80333;BME280;69652;51.864;-2.246;2023-06-01T07:28:36;102587.53;;;12.58;65.42
80333;BME280;69652;51.864;-2.246;2023-06-01T07:31:03;102587.00;;;12.61;64.68
80333;BME280;69652;51.864;-2.246;2023-06-01T07:33:28;102585.59;;;12.53;65.75
80333;BME280;69652;51.864;-2.246;2023-06-01T07:35:54;102591.34;;;12.57;65.71
80333;BME280;69652;51.864;-2.246;2023-06-01T07:38:22;102589.44;;;12.57;65.04
80333;BME280;69652;51.864;-2.246;2023-06-01T07:40:48;102588.88;;;12.55;65.13
80333;BME280;69652;51.864;-2.246;2023-06-01T07:43:14;102584.50;;;12.75;64.73
80333;BME280;69652;51.864;-2.246;2023-06-01T07:45:39;102584.81;;;12.78;63.78
80333;BME280;69652;51.864;-2.246;2023-06-01T07:48:05;102580.16;;;12.79;64.13
80333;BME280;69652;51.864;-2.246;2023-06-01T07:50:31;102588.09;;;12.95;63.72
80333;BME280;69652;51.864;-2.246;2023-06-01T07:52:57;102585.09;;;12.82;64.56
80333;BME280;69652;51.864;-2.246;2023-06-01T07:55:23;102592.69;;;12.80;63.90
80333;BME280;69652;51.864;-2.246;2023-06-01T07:57:49;102589.72;;;12.96;64.00
80333;BME280;69652;51.864;-2.246;2023-06-01T08:00:15;102587.50;;;13.14;62.58
80333;BME280;69652;51.864;-2.246;2023-06-01T08:02:43;102591.06;;;13.24;63.05
80333;BME280;69652;51.864;-2.246;2023-06-01T08:05:09;102597.59;;;13.44;62.60
80333;BME280;69652;51.864;-2.246;2023-06-01T08:07:37;102589.69;;;13.27;62.87
80333;BME280;69652;51.864;-2.246;2023-06-01T08:10:06;102591.59;;;13.31;62.17
80333;BME280;69652;51.864;-2.246;2023-06-01T08:12:34;102590.50;;;13.37;62.00
80333;BME280;69652;51.864;-2.246;2023-06-01T08:15:00;102593.75;;;13.45;62.23
80333;BME280;69652;51.864;-2.246;2023-06-01T08:17:25;102600.28;;;13.49;62.57
80333;BME280;69652;51.864;-2.246;2023-06-01T08:19:51;102603.28;;;13.47;62.56
80333;BME280;69652;51.864;-2.246;2023-06-01T08:22:19;102598.38;;;13.54;61.81
80333;BME280;69652;51.864;-2.246;2023-06-01T08:24:45;102604.69;;;13.40;61.66
80333;BME280;69652;51.864;-2.246;2023-06-01T08:27:20;102603.59;;;13.41;61.94
80333;BME280;69652;51.864;-2.246;2023-06-01T08:29:46;102607.69;;;13.23;63.43
80333;BME280;69652;51.864;-2.246;2023-06-01T08:32:13;102607.09;;;13.46;62.09
80333;BME280;69652;51.864;-2.246;2023-06-01T08:34:38;102606.88;;;13.32;62.99
80333;BME280;69652;51.864;-2.246;2023-06-01T08:37:04;102601.13;;;13.34;62.44
80333;BME280;69652;51.864;-2.246;2023-06-01T08:39:30;102598.66;;;13.48;61.82
80333;BME280;69652;51.864;-2.246;2023-06-01T08:44:40;102603.75;;;13.74;61.10
80333;BME280;69652;51.864;-2.246;2023-06-01T08:47:07;102594.19;;;13.77;61.19
80333;BME280;69652;51.864;-2.246;2023-06-01T08:49:34;102595.28;;;13.71;61.41
80333;BME280;69652;51.864;-2.246;2023-06-01T08:52:02;102589.00;;;13.76;61.43
80333;BME280;69652;51.864;-2.246;2023-06-01T08:54:29;102593.66;;;13.80;61.03
80333;BME280;69652;51.864;-2.246;2023-06-01T08:57:00;102579.66;;;13.92;61.20
80333;BME280;69652;51.864;-2.246;2023-06-01T08:59:29;102575.31;;;13.86;62.13
80333;BME280;69652;51.864;-2.246;2023-06-01T09:01:57;102587.00;;;14.01;60.94
80333;BME280;69652;51.864;-2.246;2023-06-01T09:04:22;102574.09;;;14.12;61.29
80333;BME280;69652;51.864;-2.246;2023-06-01T09:06:48;102579.56;;;14.07;60.50
80333;BME280;69652;51.864;-2.246;2023-06-01T09:09:13;102581.63;;;14.30;59.85
80333;BME280;69652;51.864;-2.246;2023-06-01T09:11:39;102576.88;;;14.02;60.65
80333;BME280;69652;51.864;-2.246;2023-06-01T09:14:24;102577.25;;;14.29;59.65
80333;BME280;69652;51.864;-2.246;2023-06-01T09:16:51;102571.78;;;14.39;59.55
80333;BME280;69652;51.864;-2.246;2023-06-01T09:19:17;102584.34;;;14.30;59.54
80333;BME280;69652;51.864;-2.246;2023-06-01T09:21:58;102575.75;;;14.52;58.96
80333;BME280;69652;51.864;-2.246;2023-06-01T09:24:25;102578.09;;;14.69;57.91
80333;BME280;69652;51.864;-2.246;2023-06-01T09:26:58;102573.91;;;14.42;59.33
80333;BME280;69652;51.864;-2.246;2023-06-01T09:29:25;102569.88;;;14.74;58.57
80333;BME280;69652;51.864;-2.246;2023-06-01T09:31:51;102571.41;;;14.51;58.86
80333;BME280;69652;51.864;-2.246;2023-06-01T09:34:19;102575.56;;;14.77;58.87
80333;BME280;69652;51.864;-2.246;2023-06-01T09:36:53;102574.19;;;14.80;58.00
80333;BME280;69652;51.864;-2.246;2023-06-01T09:39:20;102566.22;;;15.12;57.36
80333;BME280;69652;51.864;-2.246;2023-06-01T09:44:26;102567.81;;;15.18;55.87
80333;BME280;69652;51.864;-2.246;2023-06-01T09:46:53;102570.66;;;15.08;56.84
80333;BME280;69652;51.864;-2.246;2023-06-01T09:49:27;102571.28;;;15.24;56.92
80333;BME280;69652;51.864;-2.246;2023-06-01T09:52:14;102565.59;;;15.21;56.89
80333;BME280;69652;51.864;-2.246;2023-06-01T09:54:44;102563.75;;;15.11;56.90
80333;BME280;69652;51.864;-2.246;2023-06-01T09:57:11;102564.47;;;14.98;58.49
80333;BME280;69652;51.864;-2.246;2023-06-01T09:59:44;102565.22;;;15.03;57.20
80333;BME280;69652;51.864;-2.246;2023-06-01T10:02:19;102574.66;;;14.87;57.46
80333;BME280;69652;51.864;-2.246;2023-06-01T10:04:48;102569.69;;;14.94;58.01
80333;BME280;69652;51.864;-2.246;2023-06-01T10:07:15;102563.69;;;15.21;56.43
80333;BME280;69652;51.864;-2.246;2023-06-01T10:09:43;102570.13;;;15.06;56.33
80333;BME280;69652;51.864;-2.246;2023-06-01T10:12:09;102564.81;;;15.44;56.53
80333;BME280;69652;51.864;-2.246;2023-06-01T10:14:37;102564.81;;;15.44;56.03
80333;BME280;69652;51.864;-2.246;2023-06-01T10:17:06;102564.81;;;15.44;55.73
80333;BME280;69652;51.864;-2.246;2023-06-01T10:19:33;102571.75;;;15.60;55.90
80333;BME280;69652;51.864;-2.246;2023-06-01T10:22:02;102571.41;;;15.67;55.79
80333;BME280;69652;51.864;-2.246;2023-06-01T10:24:28;102571.19;;;15.82;56.49
80333;BME280;69652;51.864;-2.246;2023-06-01T10:27:15;102568.31;;;15.73;56.18
80333;BME280;69652;51.864;-2.246;2023-06-01T10:29:42;102567.63;;;15.81;55.07
80333;BME280;69652;51.864;-2.246;2023-06-01T10:35:09;102554.97;;;16.28;54.44
80333;BME280;69652;51.864;-2.246;2023-06-01T10:40:36;102556.34;;;16.63;52.87
80333;BME280;69652;51.864;-2.246;2023-06-01T10:43:03;102557.94;;;16.83;52.35
80333;BME280;69652;51.864;-2.246;2023-06-01T10:48:01;102554.81;;;17.03;52.83
80333;BME280;69652;51.864;-2.246;2023-06-01T10:50:27;102550.34;;;16.93;51.78
80333;BME280;69652;51.864;-2.246;2023-06-01T10:52:54;102547.84;;;16.78;52.38
80333;BME280;69652;51.864;-2.246;2023-06-01T10:55:22;102553.69;;;16.90;53.52
80333;BME280;69652;51.864;-2.246;2023-06-01T10:57:47;102557.78;;;17.07;51.81
80333;BME280;69652;51.864;-2.246;2023-06-01T11:00:26;102550.72;;;17.33;51.95
80333;BME280;69652;51.864;-2.246;2023-06-01T11:05:39;102550.81;;;17.55;49.82
80333;BME280;69652;51.864;-2.246;2023-06-01T11:08:07;102554.25;;;17.47;49.94
80333;BME280;69652;51.864;-2.246;2023-06-01T11:18:42;102546.22;;;17.37;51.48
80333;BME280;69652;51.864;-2.246;2023-06-01T11:21:18;102544.50;;;17.27;51.34
80333;BME280;69652;51.864;-2.246;2023-06-01T11:23:45;102548.66;;;17.93;49.85
80333;BME280;69652;51.864;-2.246;2023-06-01T11:26:14;102550.41;;;18.25;48.98
80333;BME280;69652;51.864;-2.246;2023-06-01T11:28:43;102544.91;;;18.48;47.79
80333;BME280;69652;51.864;-2.246;2023-06-01T11:31:11;102548.00;;;18.55;46.75
80333;BME280;69652;51.864;-2.246;2023-06-01T11:33:40;102537.91;;;18.86;48.02
80333;BME280;69652;51.864;-2.246;2023-06-01T11:36:07;102531.00;;;18.97;46.26
80333;BME280;69652;51.864;-2.246;2023-06-01T11:38:38;102529.41;;;19.05;47.06
80333;BME280;69652;51.864;-2.246;2023-06-01T11:41:04;102539.13;;;18.71;48.23
80333;BME280;69652;51.864;-2.246;2023-06-01T11:43:31;102521.63;;;20.38;45.40
80333;BME280;69652;51.864;-2.246;2023-06-01T11:46:04;102520.13;;;20.58;44.03
80333;BME280;69652;51.864;-2.246;2023-06-01T11:48:30;102512.03;;;20.27;44.96
80333;BME280;69652;51.864;-2.246;2023-06-01T11:50:57;102513.31;;;19.95;45.00
80333;BME280;69652;51.864;-2.246;2023-06-01T11:53:24;102521.44;;;20.00;45.61
80333;BME280;69652;51.864;-2.246;2023-06-01T11:55:51;102523.69;;;20.32;44.62
80333;BME280;69652;51.864;-2.246;2023-06-01T11:58:24;102525.91;;;19.61;45.65
80333;BME280;69652;51.864;-2.246;2023-06-01T12:00:50;102520.78;;;20.20;44.57
80333;BME280;69652;51.864;-2.246;2023-06-01T12:03:15;102520.81;;;20.37;43.92
80333;BME280;69652;51.864;-2.246;2023-06-01T12:05:42;102520.13;;;19.89;45.15
80333;BME280;69652;51.864;-2.246;2023-06-01T12:08:29;102519.81;;;19.90;45.37
80333;BME280;69652;51.864;-2.246;2023-06-01T12:10:57;102513.97;;;20.09;44.61
80333;BME280;69652;51.864;-2.246;2023-06-01T12:13:23;102516.06;;;20.55;43.52
80333;BME280;69652;51.864;-2.246;2023-06-01T12:15:51;102514.47;;;20.19;44.94
80333;BME280;69652;51.864;-2.246;2023-06-01T12:18:28;102519.19;;;20.02;45.27
80333;BME280;69652;51.864;-2.246;2023-06-01T12:20:55;102519.50;;;20.09;44.97
80333;BME280;69652;51.864;-2.246;2023-06-01T12:23:20;102507.34;;;20.01;44.50
80333;BME280;69652;51.864;-2.246;2023-06-01T12:25:54;102512.69;;;20.24;44.01
80333;BME280;69652;51.864;-2.246;2023-06-01T12:28:21;102513.16;;;20.34;44.42
80333;BME280;69652;51.864;-2.246;2023-06-01T12:30:48;102496.56;;;20.69;44.36
80333;BME280;69652;51.864;-2.246;2023-06-01T12:33:49;102500.00;;;20.57;43.89
80333;BME280;69652;51.864;-2.246;2023-06-01T12:36:34;102493.06;;;20.25;44.16
80333;BME280;69652;51.864;-2.246;2023-06-01T12:39:02;102489.56;;;21.18;43.64
80333;BME280;69652;51.864;-2.246;2023-06-01T12:41:29;102496.56;;;21.24;42.35
80333;BME280;69652;51.864;-2.246;2023-06-01T12:43:56;102492.31;;;22.06;41.37
80333;BME280;69652;51.864;-2.246;2023-06-01T12:46:29;102475.16;;;23.52;38.46
80333;BME280;69652;51.864;-2.246;2023-06-01T12:49:15;102489.25;;;22.53;39.39
80333;BME280;69652;51.864;-2.246;2023-06-01T12:51:44;102476.63;;;23.73;37.74
80333;BME280;69652;51.864;-2.246;2023-06-01T12:54:10;102472.13;;;23.81;39.02
80333;BME280;69652;51.864;-2.246;2023-06-01T12:56:37;102472.34;;;23.76;38.28
80333;BME280;69652;51.864;-2.246;2023-06-01T12:59:02;102474.34;;;23.63;39.21
80333;BME280;69652;51.864;-2.246;2023-06-01T13:01:27;102459.03;;;24.65;37.15
80333;BME280;69652;51.864;-2.246;2023-06-01T13:03:53;102466.19;;;24.23;36.10
80333;BME280;69652;51.864;-2.246;2023-06-01T13:06:19;102463.19;;;24.43;36.03
80333;BME280;69652;51.864;-2.246;2023-06-01T13:08:45;102450.06;;;24.88;35.10
80333;BME280;69652;51.864;-2.246;2023-06-01T13:11:11;102448.22;;;25.27;35.00
80333;BME280;69652;51.864;-2.246;2023-06-01T13:13:36;102451.88;;;25.46;35.21
80333;BME280;69652;51.864;-2.246;2023-06-01T13:16:02;102444.94;;;25.56;34.80